Sawtooth City, Idaho
Current Conditions -  °F | °C
As of 8:47 AM on Sunday 21 Dec 2014 (Local Time) from KSUN Reporting Station
Light Snow Light Snow  
Wind Chill: 32°   Ceiling: 400
Heat Index: 32°   Visibility: 1mi
Dew Point: 32°   Wind: 0mph
Humidity: 100%   Direction: NA
Pressure: 29.8"   Gusts: NA
Location:  43.7579°N, 114.524°W
Report Text: KSUN 211547Z 00000KT 1SM -SN OVC004 00/00 A2980
Loading
Personal Weather Stations






























Interactive Weather Map New forecast layout! Learn more

10-Day Weather Forecast

Advertisements
Track Severe Weather on mobile